sensor_id;sensor_type;location;lat;lon;timestamp;P1;durP1;ratioP1;P2;durP2;ratioP2
6999;SDS011;3540;53.242;10.408;2023-08-21T00:01:12;7.13;;;3.17;;
6999;SDS011;3540;53.242;10.408;2023-08-21T00:03:38;6.83;;;3.13;;
6999;SDS011;3540;53.242;10.408;2023-08-21T00:06:03;6.30;;;3.50;;
6999;SDS011;3540;53.242;10.408;2023-08-21T00:08:29;8.47;;;3.27;;
6999;SDS011;3540;53.242;10.408;2023-08-21T00:10:55;8.13;;;3.13;;
6999;SDS011;3540;53.242;10.408;2023-08-21T00:13:20;10.23;;;3.33;;
6999;SDS011;3540;53.242;10.408;2023-08-21T00:15:46;5.73;;;3.37;;
6999;SDS011;3540;53.242;10.408;2023-08-21T00:18:12;9.10;;;3.67;;
6999;SDS011;3540;53.242;10.408;2023-08-21T00:20:38;6.50;;;3.47;;
6999;SDS011;3540;53.242;10.408;2023-08-21T00:23:04;3.90;;;3.10;;
6999;SDS011;3540;53.242;10.408;2023-08-21T00:25:29;8.43;;;3.47;;
6999;SDS011;3540;53.242;10.408;2023-08-21T00:27:55;6.90;;;3.40;;
6999;SDS011;3540;53.242;10.408;2023-08-21T00:30:21;6.53;;;3.30;;
6999;SDS011;3540;53.242;10.408;2023-08-21T00:32:46;7.87;;;3.73;;
6999;SDS011;3540;53.242;10.408;2023-08-21T00:35:12;6.13;;;3.20;;
6999;SDS011;3540;53.242;10.408;2023-08-21T00:37:37;8.20;;;3.50;;
6999;SDS011;3540;53.242;10.408;2023-08-21T00:40:03;7.40;;;3.30;;
6999;SDS011;3540;53.242;10.408;2023-08-21T00:42:29;8.53;;;3.57;;
6999;SDS011;3540;53.242;10.408;2023-08-21T00:44:55;6.63;;;3.90;;
6999;SDS011;3540;53.242;10.408;2023-08-21T00:47:20;7.40;;;3.23;;
6999;SDS011;3540;53.242;10.408;2023-08-21T00:49:46;5.27;;;3.27;;
6999;SDS011;3540;53.242;10.408;2023-08-21T00:52:12;8.47;;;3.70;;
6999;SDS011;3540;53.242;10.408;2023-08-21T00:54:40;5.97;;;3.73;;
6999;SDS011;3540;53.242;10.408;2023-08-21T00:57:05;5.23;;;3.43;;
6999;SDS011;3540;53.242;10.408;2023-08-21T00:59:32;6.93;;;3.60;;
6999;SDS011;3540;53.242;10.408;2023-08-21T01:01:57;9.10;;;3.87;;
6999;SDS011;3540;53.242;10.408;2023-08-21T01:04:23;4.83;;;3.47;;
6999;SDS011;3540;53.242;10.408;2023-08-21T01:06:49;8.10;;;3.80;;
6999;SDS011;3540;53.242;10.408;2023-08-21T01:14:43;11.10;;;4.33;;
6999;SDS011;3540;53.242;10.408;2023-08-21T01:17:29;6.53;;;3.30;;
6999;SDS011;3540;53.242;10.408;2023-08-21T01:19:55;11.73;;;3.87;;
6999;SDS011;3540;53.242;10.408;2023-08-21T01:22:25;8.83;;;3.80;;
6999;SDS011;3540;53.242;10.408;2023-08-21T01:24:53;7.47;;;3.90;;
6999;SDS011;3540;53.242;10.408;2023-08-21T01:27:19;7.53;;;3.47;;
6999;SDS011;3540;53.242;10.408;2023-08-21T01:29:46;7.10;;;3.70;;
6999;SDS011;3540;53.242;10.408;2023-08-21T01:35:04;11.57;;;3.93;;
6999;SDS011;3540;53.242;10.408;2023-08-21T01:37:31;7.50;;;3.60;;
6999;SDS011;3540;53.242;10.408;2023-08-21T01:39:57;11.20;;;3.77;;
6999;SDS011;3540;53.242;10.408;2023-08-21T01:42:23;8.17;;;3.67;;
6999;SDS011;3540;53.242;10.408;2023-08-21T01:44:49;6.50;;;3.40;;
6999;SDS011;3540;53.242;10.408;2023-08-21T01:47:15;8.43;;;3.63;;
6999;SDS011;3540;53.242;10.408;2023-08-21T01:49:40;5.37;;;3.20;;
6999;SDS011;3540;53.242;10.408;2023-08-21T01:52:06;5.23;;;3.20;;
6999;SDS011;3540;53.242;10.408;2023-08-21T01:54:32;7.93;;;3.70;;
6999;SDS011;3540;53.242;10.408;2023-08-21T01:56:57;8.47;;;4.00;;
6999;SDS011;3540;53.242;10.408;2023-08-21T01:59:23;5.57;;;3.40;;
6999;SDS011;3540;53.242;10.408;2023-08-21T02:01:49;6.97;;;3.40;;
6999;SDS011;3540;53.242;10.408;2023-08-21T02:04:15;4.67;;;3.27;;
6999;SDS011;3540;53.242;10.408;2023-08-21T02:06:41;5.03;;;3.60;;
6999;SDS011;3540;53.242;10.408;2023-08-21T02:09:06;7.00;;;3.50;;
6999;SDS011;3540;53.242;10.408;2023-08-21T02:11:32;8.83;;;3.43;;
6999;SDS011;3540;53.242;10.408;2023-08-21T02:13:57;6.53;;;3.50;;
6999;SDS011;3540;53.242;10.408;2023-08-21T02:16:23;5.00;;;3.47;;
6999;SDS011;3540;53.242;10.408;2023-08-21T02:18:49;5.23;;;3.30;;
6999;SDS011;3540;53.242;10.408;2023-08-21T02:21:15;8.10;;;3.80;;
6999;SDS011;3540;53.242;10.408;2023-08-21T02:23:40;6.13;;;3.47;;
6999;SDS011;3540;53.242;10.408;2023-08-21T02:26:06;6.83;;;3.40;;
6999;SDS011;3540;53.242;10.408;2023-08-21T02:28:31;7.60;;;3.80;;
6999;SDS011;3540;53.242;10.408;2023-08-21T02:30:57;6.17;;;3.50;;
6999;SDS011;3540;53.242;10.408;2023-08-21T02:33:23;7.50;;;3.30;;
6999;SDS011;3540;53.242;10.408;2023-08-21T02:35:48;8.50;;;3.90;;
6999;SDS011;3540;53.242;10.408;2023-08-21T02:38:14;4.43;;;3.37;;
6999;SDS011;3540;53.242;10.408;2023-08-21T02:40:39;6.43;;;3.70;;
6999;SDS011;3540;53.242;10.408;2023-08-21T02:43:05;6.27;;;3.40;;
6999;SDS011;3540;53.242;10.408;2023-08-21T02:45:31;5.43;;;3.70;;
6999;SDS011;3540;53.242;10.408;2023-08-21T02:47:56;5.80;;;3.60;;
6999;SDS011;3540;53.242;10.408;2023-08-21T02:50:22;10.87;;;4.03;;
6999;SDS011;3540;53.242;10.408;2023-08-21T02:52:48;7.70;;;3.33;;
6999;SDS011;3540;53.242;10.408;2023-08-21T02:55:13;4.93;;;3.23;;
6999;SDS011;3540;53.242;10.408;2023-08-21T02:57:40;7.57;;;3.80;;
6999;SDS011;3540;53.242;10.408;2023-08-21T03:00:06;7.67;;;3.60;;
6999;SDS011;3540;53.242;10.408;2023-08-21T03:02:33;4.63;;;3.30;;
6999;SDS011;3540;53.242;10.408;2023-08-21T03:04:59;3.90;;;3.37;;
6999;SDS011;3540;53.242;10.408;2023-08-21T03:07:25;7.10;;;3.30;;
6999;SDS011;3540;53.242;10.408;2023-08-21T03:09:50;4.83;;;3.20;;
6999;SDS011;3540;53.242;10.408;2023-08-21T03:12:16;7.50;;;3.70;;
6999;SDS011;3540;53.242;10.408;2023-08-21T03:14:42;9.00;;;3.30;;
6999;SDS011;3540;53.242;10.408;2023-08-21T03:17:08;9.97;;;3.83;;
6999;SDS011;3540;53.242;10.408;2023-08-21T03:19:33;5.63;;;3.30;;
6999;SDS011;3540;53.242;10.408;2023-08-21T03:21:59;5.37;;;3.40;;
6999;SDS011;3540;53.242;10.408;2023-08-21T03:24:25;5.97;;;3.50;;
6999;SDS011;3540;53.242;10.408;2023-08-21T03:26:51;9.30;;;3.63;;
6999;SDS011;3540;53.242;10.408;2023-08-21T03:29:16;8.03;;;3.13;;
6999;SDS011;3540;53.242;10.408;2023-08-21T03:31:42;7.33;;;3.27;;
6999;SDS011;3540;53.242;10.408;2023-08-21T03:34:08;7.57;;;3.40;;
6999;SDS011;3540;53.242;10.408;2023-08-21T03:36:33;6.43;;;3.63;;
6999;SDS011;3540;53.242;10.408;2023-08-21T03:39:01;5.60;;;3.30;;
6999;SDS011;3540;53.242;10.408;2023-08-21T03:41:28;5.40;;;3.13;;
6999;SDS011;3540;53.242;10.408;2023-08-21T03:43:54;6.27;;;3.53;;
6999;SDS011;3540;53.242;10.408;2023-08-21T03:46:20;5.13;;;3.03;;
6999;SDS011;3540;53.242;10.408;2023-08-21T03:48:45;7.87;;;4.57;;
6999;SDS011;3540;53.242;10.408;2023-08-21T03:51:11;6.73;;;3.30;;
6999;SDS011;3540;53.242;10.408;2023-08-21T03:53:37;5.93;;;3.30;;
6999;SDS011;3540;53.242;10.408;2023-08-21T03:56:02;5.93;;;3.13;;
6999;SDS011;3540;53.242;10.408;2023-08-21T03:58:28;4.23;;;3.07;;
6999;SDS011;3540;53.242;10.408;2023-08-21T04:00:54;3.83;;;2.73;;
6999;SDS011;3540;53.242;10.408;2023-08-21T04:03:20;3.50;;;3.20;;
6999;SDS011;3540;53.242;10.408;2023-08-21T04:05:46;3.93;;;2.80;;
6999;SDS011;3540;53.242;10.408;2023-08-21T04:08:12;4.47;;;3.03;;
6999;SDS011;3540;53.242;10.408;2023-08-21T04:10:37;5.43;;;3.10;;
6999;SDS011;3540;53.242;10.408;2023-08-21T04:13:04;11.13;;;3.73;;
6999;SDS011;3540;53.242;10.408;2023-08-21T04:15:30;4.57;;;3.27;;
6999;SDS011;3540;53.242;10.408;2023-08-21T04:17:56;3.63;;;3.33;;
6999;SDS011;3540;53.242;10.408;2023-08-21T04:20:21;5.33;;;3.10;;
6999;SDS011;3540;53.242;10.408;2023-08-21T04:22:48;6.93;;;3.60;;
6999;SDS011;3540;53.242;10.408;2023-08-21T04:25:14;5.93;;;3.30;;
6999;SDS011;3540;53.242;10.408;2023-08-21T04:27:40;7.83;;;3.67;;
6999;SDS011;3540;53.242;10.408;2023-08-21T04:30:06;4.43;;;3.20;;
6999;SDS011;3540;53.242;10.408;2023-08-21T04:32:32;6.63;;;3.40;;
6999;SDS011;3540;53.242;10.408;2023-08-21T04:34:57;7.03;;;3.83;;
6999;SDS011;3540;53.242;10.408;2023-08-21T04:37:23;4.83;;;3.37;;
6999;SDS011;3540;53.242;10.408;2023-08-21T04:39:52;8.00;;;3.53;;
6999;SDS011;3540;53.242;10.408;2023-08-21T04:42:18;8.10;;;3.53;;
6999;SDS011;3540;53.242;10.408;2023-08-21T04:44:44;7.33;;;3.10;;
6999;SDS011;3540;53.242;10.408;2023-08-21T04:47:20;7.93;;;3.80;;
6999;SDS011;3540;53.242;10.408;2023-08-21T04:49:51;4.67;;;3.03;;
6999;SDS011;3540;53.242;10.408;2023-08-21T04:52:17;6.10;;;3.43;;
6999;SDS011;3540;53.242;10.408;2023-08-21T04:54:43;5.40;;;3.53;;
6999;SDS011;3540;53.242;10.408;2023-08-21T04:57:08;4.80;;;3.37;;
6999;SDS011;3540;53.242;10.408;2023-08-21T04:59:34;8.13;;;3.73;;
6999;SDS011;3540;53.242;10.408;2023-08-21T05:02:01;5.40;;;3.50;;
6999;SDS011;3540;53.242;10.408;2023-08-21T05:04:26;6.33;;;3.43;;
6999;SDS011;3540;53.242;10.408;2023-08-21T05:06:52;3.97;;;3.20;;
6999;SDS011;3540;53.242;10.408;2023-08-21T05:09:18;5.60;;;3.23;;
6999;SDS011;3540;53.242;10.408;2023-08-21T05:11:43;5.50;;;3.30;;
6999;SDS011;3540;53.242;10.408;2023-08-21T05:14:09;5.63;;;3.53;;
6999;SDS011;3540;53.242;10.408;2023-08-21T05:16:34;7.90;;;3.47;;
6999;SDS011;3540;53.242;10.408;2023-08-21T05:19:00;5.63;;;3.30;;
6999;SDS011;3540;53.242;10.408;2023-08-21T05:21:26;6.70;;;3.63;;
6999;SDS011;3540;53.242;10.408;2023-08-21T05:23:52;8.83;;;3.90;;
6999;SDS011;3540;53.242;10.408;2023-08-21T05:26:19;5.63;;;3.37;;
6999;SDS011;3540;53.242;10.408;2023-08-21T05:28:44;7.73;;;4.00;;
6999;SDS011;3540;53.242;10.408;2023-08-21T05:31:10;9.70;;;4.30;;
6999;SDS011;3540;53.242;10.408;2023-08-21T05:33:36;5.50;;;3.70;;
6999;SDS011;3540;53.242;10.408;2023-08-21T05:36:01;11.87;;;4.30;;
6999;SDS011;3540;53.242;10.408;2023-08-21T05:38:27;6.67;;;4.27;;
6999;SDS011;3540;53.242;10.408;2023-08-21T05:40:53;9.77;;;4.30;;
6999;SDS011;3540;53.242;10.408;2023-08-21T05:43:18;8.03;;;4.10;;
6999;SDS011;3540;53.242;10.408;2023-08-21T05:45:44;9.57;;;4.00;;
6999;SDS011;3540;53.242;10.408;2023-08-21T05:48:10;9.67;;;4.10;;
6999;SDS011;3540;53.242;10.408;2023-08-21T05:50:35;9.47;;;4.13;;
6999;SDS011;3540;53.242;10.408;2023-08-21T05:53:05;10.93;;;4.20;;
6999;SDS011;3540;53.242;10.408;2023-08-21T05:55:31;9.00;;;3.97;;
6999;SDS011;3540;53.242;10.408;2023-08-21T05:57:57;9.70;;;3.63;;
6999;SDS011;3540;53.242;10.408;2023-08-21T06:00:23;12.60;;;3.87;;
6999;SDS011;3540;53.242;10.408;2023-08-21T06:02:48;8.60;;;3.40;;
6999;SDS011;3540;53.242;10.408;2023-08-21T06:05:14;10.83;;;3.40;;
6999;SDS011;3540;53.242;10.408;2023-08-21T06:07:40;12.77;;;3.93;;
6999;SDS011;3540;53.242;10.408;2023-08-21T06:10:06;8.17;;;3.00;;
6999;SDS011;3540;53.242;10.408;2023-08-21T06:12:33;12.57;;;3.17;;
6999;SDS011;3540;53.242;10.408;2023-08-21T06:14:59;13.60;;;2.97;;
6999;SDS011;3540;53.242;10.408;2023-08-21T06:17:24;9.53;;;2.70;;
6999;SDS011;3540;53.242;10.408;2023-08-21T06:19:52;8.63;;;2.77;;
6999;SDS011;3540;53.242;10.408;2023-08-21T06:22:17;10.03;;;2.90;;
6999;SDS011;3540;53.242;10.408;2023-08-21T06:24:43;10.70;;;2.77;;
6999;SDS011;3540;53.242;10.408;2023-08-21T06:27:09;9.20;;;2.67;;
6999;SDS011;3540;53.242;10.408;2023-08-21T06:29:34;10.17;;;3.07;;
6999;SDS011;3540;53.242;10.408;2023-08-21T06:32:00;9.67;;;3.00;;
6999;SDS011;3540;53.242;10.408;2023-08-21T06:34:26;10.57;;;3.00;;
6999;SDS011;3540;53.242;10.408;2023-08-21T06:36:51;8.43;;;2.73;;
6999;SDS011;3540;53.242;10.408;2023-08-21T06:39:17;14.03;;;2.97;;
6999;SDS011;3540;53.242;10.408;2023-08-21T06:41:43;11.23;;;2.97;;
6999;SDS011;3540;53.242;10.408;2023-08-21T06:44:08;9.57;;;2.73;;
6999;SDS011;3540;53.242;10.408;2023-08-21T06:46:34;9.37;;;2.50;;
6999;SDS011;3540;53.242;10.408;2023-08-21T06:49:01;8.77;;;2.60;;
6999;SDS011;3540;53.242;10.408;2023-08-21T06:51:27;7.87;;;2.17;;
6999;SDS011;3540;53.242;10.408;2023-08-21T06:53:53;9.23;;;2.70;;
6999;SDS011;3540;53.242;10.408;2023-08-21T06:56:18;9.97;;;2.53;;
6999;SDS011;3540;53.242;10.408;2023-08-21T06:58:44;12.07;;;2.87;;
6999;SDS011;3540;53.242;10.408;2023-08-21T07:01:09;7.83;;;2.53;;
6999;SDS011;3540;53.242;10.408;2023-08-21T07:03:35;7.27;;;2.30;;
6999;SDS011;3540;53.242;10.408;2023-08-21T07:06:01;7.93;;;2.80;;
6999;SDS011;3540;53.242;10.408;2023-08-21T07:08:28;7.40;;;2.17;;
6999;SDS011;3540;53.242;10.408;2023-08-21T07:10:54;9.53;;;2.40;;
6999;SDS011;3540;53.242;10.408;2023-08-21T07:13:19;9.20;;;2.87;;
6999;SDS011;3540;53.242;10.408;2023-08-21T07:15:45;10.00;;;2.60;;
6999;SDS011;3540;53.242;10.408;2023-08-21T07:18:11;8.47;;;2.50;;
6999;SDS011;3540;53.242;10.408;2023-08-21T07:20:38;9.00;;;2.77;;
6999;SDS011;3540;53.242;10.408;2023-08-21T07:23:03;12.60;;;2.43;;
6999;SDS011;3540;53.242;10.408;2023-08-21T07:25:29;9.40;;;2.30;;
6999;SDS011;3540;53.242;10.408;2023-08-21T07:27:55;7.33;;;2.07;;
6999;SDS011;3540;53.242;10.408;2023-08-21T07:30:21;11.37;;;2.83;;
6999;SDS011;3540;53.242;10.408;2023-08-21T07:32:50;11.07;;;2.70;;
6999;SDS011;3540;53.242;10.408;2023-08-21T07:35:18;14.03;;;3.13;;
6999;SDS011;3540;53.242;10.408;2023-08-21T07:37:44;8.50;;;2.63;;
6999;SDS011;3540;53.242;10.408;2023-08-21T07:40:10;9.20;;;2.60;;
6999;SDS011;3540;53.242;10.408;2023-08-21T07:42:36;7.93;;;2.60;;
6999;SDS011;3540;53.242;10.408;2023-08-21T07:45:02;14.67;;;2.80;;
6999;SDS011;3540;53.242;10.408;2023-08-21T07:47:28;13.33;;;2.73;;
6999;SDS011;3540;53.242;10.408;2023-08-21T07:49:54;8.83;;;3.07;;
6999;SDS011;3540;53.242;10.408;2023-08-21T07:52:21;8.77;;;2.70;;
6999;SDS011;3540;53.242;10.408;2023-08-21T07:54:47;10.43;;;3.07;;
6999;SDS011;3540;53.242;10.408;2023-08-21T07:57:16;10.83;;;3.27;;
6999;SDS011;3540;53.242;10.408;2023-08-21T07:59:42;11.23;;;2.80;;
6999;SDS011;3540;53.242;10.408;2023-08-21T08:02:08;10.00;;;2.87;;
6999;SDS011;3540;53.242;10.408;2023-08-21T08:04:36;15.90;;;3.30;;
6999;SDS011;3540;53.242;10.408;2023-08-21T08:07:02;11.60;;;3.07;;
6999;SDS011;3540;53.242;10.408;2023-08-21T08:09:28;7.67;;;2.90;;
6999;SDS011;3540;53.242;10.408;2023-08-21T08:11:53;10.33;;;2.90;;
6999;SDS011;3540;53.242;10.408;2023-08-21T08:14:19;10.10;;;2.90;;
6999;SDS011;3540;53.242;10.408;2023-08-21T08:16:45;11.90;;;3.17;;
6999;SDS011;3540;53.242;10.408;2023-08-21T08:19:11;7.27;;;2.53;;
6999;SDS011;3540;53.242;10.408;2023-08-21T08:21:36;9.73;;;2.43;;
6999;SDS011;3540;53.242;10.408;2023-08-21T08:24:02;10.77;;;2.80;;
6999;SDS011;3540;53.242;10.408;2023-08-21T08:26:28;10.40;;;2.97;;
6999;SDS011;3540;53.242;10.408;2023-08-21T08:28:54;8.70;;;2.77;;
6999;SDS011;3540;53.242;10.408;2023-08-21T08:31:20;8.93;;;3.20;;
6999;SDS011;3540;53.242;10.408;2023-08-21T08:33:45;11.53;;;3.33;;
6999;SDS011;3540;53.242;10.408;2023-08-21T08:36:13;9.18;;;3.20;;
6999;SDS011;3540;53.242;10.408;2023-08-21T08:38:38;7.27;;;2.63;;
6999;SDS011;3540;53.242;10.408;2023-08-21T08:41:10;9.82;;;2.55;;
6999;SDS011;3540;53.242;10.408;2023-08-21T08:43:40;17.50;;;2.55;;
6999;SDS011;3540;53.242;10.408;2023-08-21T08:46:06;5.93;;;2.53;;
6999;SDS011;3540;53.242;10.408;2023-08-21T08:48:34;9.05;;;2.00;;
6999;SDS011;3540;53.242;10.408;2023-08-21T08:51:00;7.80;;;2.40;;
6999;SDS011;3540;53.242;10.408;2023-08-21T08:53:29;6.30;;;2.35;;
6999;SDS011;3540;53.242;10.408;2023-08-21T08:55:56;9.32;;;2.47;;
6999;SDS011;3540;53.242;10.408;2023-08-21T08:58:23;8.07;;;2.70;;
6999;SDS011;3540;53.242;10.408;2023-08-21T09:00:48;5.10;;;2.47;;
6999;SDS011;3540;53.242;10.408;2023-08-21T09:03:14;7.90;;;2.50;;
6999;SDS011;3540;53.242;10.408;2023-08-21T09:05:40;8.00;;;2.10;;
6999;SDS011;3540;53.242;10.408;2023-08-21T09:10:32;5.28;;;2.05;;
6999;SDS011;3540;53.242;10.408;2023-08-21T09:12:57;5.60;;;2.08;;
6999;SDS011;3540;53.242;10.408;2023-08-21T09:15:29;9.13;;;2.22;;
6999;SDS011;3540;53.242;10.408;2023-08-21T09:17:55;5.05;;;1.90;;
6999;SDS011;3540;53.242;10.408;2023-08-21T09:20:21;4.47;;;1.95;;
6999;SDS011;3540;53.242;10.408;2023-08-21T09:22:54;6.22;;;2.13;;
6999;SDS011;3540;53.242;10.408;2023-08-21T09:25:23;5.20;;;2.00;;
6999;SDS011;3540;53.242;10.408;2023-08-21T09:27:51;4.60;;;1.98;;
6999;SDS011;3540;53.242;10.408;2023-08-21T09:30:18;4.40;;;1.70;;
6999;SDS011;3540;53.242;10.408;2023-08-21T09:32:57;6.63;;;2.08;;
6999;SDS011;3540;53.242;10.408;2023-08-21T09:35:25;4.20;;;1.60;;
6999;SDS011;3540;53.242;10.408;2023-08-21T09:37:51;5.95;;;2.28;;
6999;SDS011;3540;53.242;10.408;2023-08-21T09:40:20;9.23;;;2.20;;
6999;SDS011;3540;53.242;10.408;2023-08-21T09:42:51;5.20;;;1.60;;
6999;SDS011;3540;53.242;10.408;2023-08-21T09:45:24;4.25;;;1.90;;
6999;SDS011;3540;53.242;10.408;2023-08-21T09:47:53;4.90;;;2.00;;
6999;SDS011;3540;53.242;10.408;2023-08-21T09:50:19;5.97;;;1.75;;
6999;SDS011;3540;53.242;10.408;2023-08-21T09:52:45;4.97;;;1.75;;
6999;SDS011;3540;53.242;10.408;2023-08-21T09:55:12;6.50;;;1.90;;
6999;SDS011;3540;53.242;10.408;2023-08-21T09:57:39;3.25;;;1.50;;
6999;SDS011;3540;53.242;10.408;2023-08-21T10:00:06;4.50;;;1.90;;
6999;SDS011;3540;53.242;10.408;2023-08-21T10:02:46;4.68;;;1.88;;
6999;SDS011;3540;53.242;10.408;2023-08-21T10:05:18;4.82;;;1.90;;
6999;SDS011;3540;53.242;10.408;2023-08-21T10:07:47;5.20;;;1.75;;
6999;SDS011;3540;53.242;10.408;2023-08-21T10:10:14;4.95;;;1.83;;
6999;SDS011;3540;53.242;10.408;2023-08-21T10:12:43;5.30;;;1.85;;
6999;SDS011;3540;53.242;10.408;2023-08-21T10:15:08;5.53;;;2.17;;
6999;SDS011;3540;53.242;10.408;2023-08-21T10:17:37;7.13;;;2.05;;
6999;SDS011;3540;53.242;10.408;2023-08-21T10:20:03;7.40;;;2.40;;
6999;SDS011;3540;53.242;10.408;2023-08-21T10:25:16;5.45;;;2.08;;
6999;SDS011;3540;53.242;10.408;2023-08-21T10:27:49;8.02;;;2.13;;
6999;SDS011;3540;53.242;10.408;2023-08-21T10:30:23;5.80;;;2.03;;
6999;SDS011;3540;53.242;10.408;2023-08-21T10:32:53;4.40;;;1.77;;
6999;SDS011;3540;53.242;10.408;2023-08-21T10:35:21;2.88;;;1.50;;
6999;SDS011;3540;53.242;10.408;2023-08-21T10:40:33;8.07;;;2.10;;
6999;SDS011;3540;53.242;10.408;2023-08-21T10:43:02;6.95;;;2.03;;
6999;SDS011;3540;53.242;10.408;2023-08-21T10:45:29;4.80;;;1.98;;
6999;SDS011;3540;53.242;10.408;2023-08-21T10:47:58;6.30;;;1.67;;
6999;SDS011;3540;53.242;10.408;2023-08-21T10:50:25;4.38;;;1.60;;
6999;SDS011;3540;53.242;10.408;2023-08-21T10:52:51;5.90;;;2.08;;
6999;SDS011;3540;53.242;10.408;2023-08-21T10:55:18;3.58;;;1.63;;
6999;SDS011;3540;53.242;10.408;2023-08-21T10:57:48;3.30;;;1.50;;
6999;SDS011;3540;53.242;10.408;2023-08-21T11:00:18;3.38;;;1.80;;
6999;SDS011;3540;53.242;10.408;2023-08-21T11:02:45;4.20;;;1.80;;
6999;SDS011;3540;53.242;10.408;2023-08-21T11:05:13;5.05;;;1.88;;
6999;SDS011;3540;53.242;10.408;2023-08-21T11:07:44;6.18;;;1.80;;
6999;SDS011;3540;53.242;10.408;2023-08-21T11:10:12;4.53;;;1.80;;
6999;SDS011;3540;53.242;10.408;2023-08-21T11:12:52;6.47;;;1.95;;
6999;SDS011;3540;53.242;10.408;2023-08-21T11:15:20;4.10;;;1.40;;
6999;SDS011;3540;53.242;10.408;2023-08-21T11:17:55;3.80;;;1.60;;
6999;SDS011;3540;53.242;10.408;2023-08-21T11:20:29;3.17;;;1.65;;
6999;SDS011;3540;53.242;10.408;2023-08-21T11:23:04;5.32;;;1.98;;
6999;SDS011;3540;53.242;10.408;2023-08-21T11:25:34;3.67;;;1.75;;
6999;SDS011;3540;53.242;10.408;2023-08-21T11:28:04;4.05;;;1.60;;
6999;SDS011;3540;53.242;10.408;2023-08-21T11:30:31;4.68;;;1.80;;
6999;SDS011;3540;53.242;10.408;2023-08-21T11:33:12;4.40;;;1.83;;
6999;SDS011;3540;53.242;10.408;2023-08-21T11:35:38;3.80;;;1.60;;
6999;SDS011;3540;53.242;10.408;2023-08-21T11:38:05;2.72;;;1.60;;
6999;SDS011;3540;53.242;10.408;2023-08-21T11:40:34;2.80;;;1.40;;
6999;SDS011;3540;53.242;10.408;2023-08-21T11:43:00;3.67;;;1.70;;
6999;SDS011;3540;53.242;10.408;2023-08-21T11:45:26;3.80;;;1.83;;
6999;SDS011;3540;53.242;10.408;2023-08-21T11:47:55;2.95;;;1.50;;
6999;SDS011;3540;53.242;10.408;2023-08-21T11:50:21;5.20;;;1.80;;
6999;SDS011;3540;53.242;10.408;2023-08-21T11:52:46;2.42;;;1.60;;
6999;SDS011;3540;53.242;10.408;2023-08-21T11:55:15;2.22;;;1.55;;
6999;SDS011;3540;53.242;10.408;2023-08-21T11:57:46;4.60;;;1.48;;
6999;SDS011;3540;53.242;10.408;2023-08-21T12:00:15;4.70;;;1.40;;
6999;SDS011;3540;53.242;10.408;2023-08-21T12:02:54;3.55;;;1.63;;
6999;SDS011;3540;53.242;10.408;2023-08-21T12:05:24;3.20;;;1.55;;
6999;SDS011;3540;53.242;10.408;2023-08-21T12:07:49;5.15;;;1.95;;
6999;SDS011;3540;53.242;10.408;2023-08-21T12:10:22;5.97;;;1.50;;
6999;SDS011;3540;53.242;10.408;2023-08-21T12:12:51;4.30;;;1.90;;
6999;SDS011;3540;53.242;10.408;2023-08-21T12:15:17;2.78;;;1.45;;
6999;SDS011;3540;53.242;10.408;2023-08-21T12:17:43;2.78;;;1.60;;
6999;SDS011;3540;53.242;10.408;2023-08-21T12:20:09;4.75;;;1.70;;
6999;SDS011;3540;53.242;10.408;2023-08-21T12:22:39;2.60;;;1.70;;
6999;SDS011;3540;53.242;10.408;2023-08-21T12:25:05;4.28;;;1.60;;
6999;SDS011;3540;53.242;10.408;2023-08-21T12:27:32;2.47;;;1.50;;
6999;SDS011;3540;53.242;10.408;2023-08-21T12:29:57;2.47;;;1.45;;
6999;SDS011;3540;53.242;10.408;2023-08-21T12:32:23;5.07;;;1.80;;
6999;SDS011;3540;53.242;10.408;2023-08-21T12:34:49;3.22;;;1.58;;
6999;SDS011;3540;53.242;10.408;2023-08-21T12:37:14;4.25;;;1.50;;
6999;SDS011;3540;53.242;10.408;2023-08-21T12:39:40;3.38;;;1.60;;
6999;SDS011;3540;53.242;10.408;2023-08-21T12:42:06;3.40;;;1.40;;
6999;SDS011;3540;53.242;10.408;2023-08-21T12:44:33;4.20;;;1.88;;
6999;SDS011;3540;53.242;10.408;2023-08-21T12:46:59;4.65;;;1.50;;
6999;SDS011;3540;53.242;10.408;2023-08-21T12:49:24;3.67;;;1.80;;
6999;SDS011;3540;53.242;10.408;2023-08-21T12:51:50;2.50;;;1.50;;
6999;SDS011;3540;53.242;10.408;2023-08-21T12:54:16;2.78;;;1.40;;
6999;SDS011;3540;53.242;10.408;2023-08-21T12:56:41;3.40;;;1.58;;
6999;SDS011;3540;53.242;10.408;2023-08-21T12:59:07;4.15;;;1.42;;
6999;SDS011;3540;53.242;10.408;2023-08-21T13:01:32;4.00;;;1.60;;
6999;SDS011;3540;53.242;10.408;2023-08-21T13:03:59;6.90;;;1.63;;
6999;SDS011;3540;53.242;10.408;2023-08-21T13:06:25;3.47;;;1.67;;
6999;SDS011;3540;53.242;10.408;2023-08-21T13:08:51;2.55;;;1.40;;
6999;SDS011;3540;53.242;10.408;2023-08-21T13:11:17;2.85;;;1.33;;
6999;SDS011;3540;53.242;10.408;2023-08-21T13:13:42;2.80;;;1.50;;
6999;SDS011;3540;53.242;10.408;2023-08-21T13:16:08;4.15;;;1.67;;
6999;SDS011;3540;53.242;10.408;2023-08-21T13:18:34;4.32;;;1.60;;
6999;SDS011;3540;53.242;10.408;2023-08-21T13:20:59;4.90;;;1.70;;
6999;SDS011;3540;53.242;10.408;2023-08-21T13:23:25;3.25;;;1.50;;
6999;SDS011;3540;53.242;10.408;2023-08-21T13:25:51;2.42;;;1.55;;
6999;SDS011;3540;53.242;10.408;2023-08-21T13:28:16;3.05;;;1.55;;
6999;SDS011;3540;53.242;10.408;2023-08-21T13:30:42;5.20;;;1.90;;
6999;SDS011;3540;53.242;10.408;2023-08-21T13:33:08;2.72;;;1.60;;
6999;SDS011;3540;53.242;10.408;2023-08-21T13:35:33;2.25;;;1.40;;
6999;SDS011;3540;53.242;10.408;2023-08-21T13:37:59;3.20;;;1.70;;
6999;SDS011;3540;53.242;10.408;2023-08-21T13:40:24;3.83;;;1.90;;
6999;SDS011;3540;53.242;10.408;2023-08-21T13:42:50;4.35;;;1.40;;
6999;SDS011;3540;53.242;10.408;2023-08-21T13:45:17;3.20;;;1.42;;
6999;SDS011;3540;53.242;10.408;2023-08-21T13:47:45;6.38;;;1.70;;
6999;SDS011;3540;53.242;10.408;2023-08-21T13:50:15;3.72;;;1.67;;
6999;SDS011;3540;53.242;10.408;2023-08-21T13:52:43;4.00;;;1.80;;
6999;SDS011;3540;53.242;10.408;2023-08-21T13:55:09;3.58;;;1.40;;
6999;SDS011;3540;53.242;10.408;2023-08-21T13:57:35;3.70;;;1.70;;
6999;SDS011;3540;53.242;10.408;2023-08-21T14:00:02;3.70;;;1.92;;
6999;SDS011;3540;53.242;10.408;2023-08-21T14:02:32;4.25;;;1.83;;
6999;SDS011;3540;53.242;10.408;2023-08-21T14:05:01;3.47;;;1.80;;
6999;SDS011;3540;53.242;10.408;2023-08-21T14:07:32;5.30;;;1.63;;
6999;SDS011;3540;53.242;10.408;2023-08-21T14:09:58;3.63;;;1.67;;
6999;SDS011;3540;53.242;10.408;2023-08-21T14:12:24;2.45;;;1.60;;
6999;SDS011;3540;53.242;10.408;2023-08-21T14:14:50;3.85;;;1.88;;
6999;SDS011;3540;53.242;10.408;2023-08-21T14:17:15;3.42;;;1.90;;
6999;SDS011;3540;53.242;10.408;2023-08-21T14:19:41;4.28;;;1.73;;
6999;SDS011;3540;53.242;10.408;2023-08-21T14:22:07;1.80;;;1.50;;
6999;SDS011;3540;53.242;10.408;2023-08-21T14:24:33;3.25;;;1.70;;
6999;SDS011;3540;53.242;10.408;2023-08-21T14:26:58;5.13;;;1.88;;
6999;SDS011;3540;53.242;10.408;2023-08-21T14:29:24;2.80;;;1.67;;
6999;SDS011;3540;53.242;10.408;2023-08-21T14:31:50;2.97;;;1.58;;
6999;SDS011;3540;53.242;10.408;2023-08-21T14:34:18;2.40;;;1.50;;
6999;SDS011;3540;53.242;10.408;2023-08-21T14:36:47;2.65;;;1.60;;
6999;SDS011;3540;53.242;10.408;2023-08-21T14:39:13;3.80;;;2.00;;
6999;SDS011;3540;53.242;10.408;2023-08-21T14:41:41;4.72;;;1.70;;
6999;SDS011;3540;53.242;10.408;2023-08-21T14:44:07;4.63;;;1.80;;
6999;SDS011;3540;53.242;10.408;2023-08-21T14:46:32;2.72;;;1.70;;
6999;SDS011;3540;53.242;10.408;2023-08-21T14:48:58;3.72;;;1.75;;
6999;SDS011;3540;53.242;10.408;2023-08-21T14:51:24;3.47;;;1.60;;
6999;SDS011;3540;53.242;10.408;2023-08-21T14:53:50;4.00;;;1.83;;
6999;SDS011;3540;53.242;10.408;2023-08-21T14:56:15;4.18;;;1.85;;
6999;SDS011;3540;53.242;10.408;2023-08-21T14:58:41;2.25;;;1.70;;
6999;SDS011;3540;53.242;10.408;2023-08-21T15:01:08;3.70;;;1.60;;
6999;SDS011;3540;53.242;10.408;2023-08-21T15:03:35;4.93;;;1.77;;
6999;SDS011;3540;53.242;10.408;2023-08-21T15:06:01;4.10;;;1.80;;
6999;SDS011;3540;53.242;10.408;2023-08-21T15:08:28;4.95;;;1.60;;
6999;SDS011;3540;53.242;10.408;2023-08-21T15:10:53;8.68;;;2.22;;
6999;SDS011;3540;53.242;10.408;2023-08-21T15:13:19;3.08;;;1.60;;